Time;durP1;ratioP1;P1;durP2;ratioP2;P2;SDS_P1;SDS_P2;PMS_P1;PMS_P2;Temp;Humidity;BMP_temperature;BMP_pressure;BME280_temperature;BME280_humidity;BME280_pressure;Samples;Min_cycle;Max_cycle;Signal;HPM_P1;HPM_P2
2023/09/13 00:01:14;;;;;;;24.60;13.30;;;;;;;17.64;80.75;99897.95;106620;1276;22544;-79
2023/09/13 00:03:47;;;;;;;27.20;14.60;;;;;;;17.63;80.76;99894.73;106679;1276;22549;-79
2023/09/13 00:06:18;;;;;;;29.60;14.70;;;;;;;17.61;80.78;99891.02;106800;1268;25509;-79
2023/09/13 00:08:49;;;;;;;29.20;14.90;;;;;;;17.57;81.03;99891.55;106661;1277;22553;-79
2023/09/13 00:11:19;;;;;;;25.20;13.20;;;;;;;17.53;81.23;99891.76;106695;1277;23314;-79
2023/09/13 00:13:50;;;;;;;25.80;14.80;;;;;;;17.51;81.40;99891.28;106731;1280;25391;-79
2023/09/13 00:16:21;;;;;;;27.00;15.20;;;;;;;17.47;81.75;99890.64;106778;1277;25125;-79
2023/09/13 00:18:51;;;;;;;26.50;14.60;;;;;;;17.43;81.94;99892.59;106691;1279;22546;-79
2023/09/13 00:21:22;;;;;;;32.20;17.20;;;;;;;17.39;82.01;99892.80;106730;1276;24537;-79
2023/09/13 00:23:53;;;;;;;26.10;14.40;;;;;;;17.37;82.03;99888.37;106689;1274;24341;-79
2023/09/13 00:26:24;;;;;;;28.10;15.60;;;;;;;17.36;81.95;99883.20;106747;1278;22553;-79
2023/09/13 00:28:54;;;;;;;28.10;15.30;;;;;;;17.33;82.08;99884.39;106806;1276;22532;-79
2023/09/13 00:31:25;;;;;;;29.00;17.20;;;;;;;17.28;82.19;99886.30;106750;1274;22534;-79
2023/09/13 00:33:56;;;;;;;26.40;15.70;;;;;;;17.22;82.60;99885.15;106774;1277;22693;-79
2023/09/13 00:36:26;;;;;;;28.60;15.40;;;;;;;17.18;82.69;99885.77;106691;1284;22536;-79
2023/09/13 00:38:57;;;;;;;30.20;16.50;;;;;;;17.13;82.71;99883.88;106657;1277;22653;-79
2023/09/13 00:41:27;;;;;;;29.60;17.50;;;;;;;17.10;82.91;99885.92;106651;1280;22612;-79
2023/09/13 00:43:58;;;;;;;26.00;15.00;;;;;;;17.07;82.84;99888.98;106713;1277;23044;-79
2023/09/13 00:46:29;;;;;;;29.70;15.30;;;;;;;17.01;83.00;99888.50;106758;1273;22546;-79
2023/09/13 00:49:00;;;;;;;25.80;14.60;;;;;;;16.97;82.95;99886.20;106762;1276;23362;-79
2023/09/13 00:51:32;;;;;;;24.20;13.80;;;;;;;16.94;82.90;99887.26;106721;1277;22576;-78
2023/09/13 00:54:04;;;;;;;27.30;14.80;;;;;;;16.91;82.98;99888.92;106852;1279;27815;-79
2023/09/13 00:56:36;;;;;;;26.60;15.60;;;;;;;16.85;83.07;99888.58;106723;1277;22565;-79
2023/09/13 00:59:08;;;;;;;25.90;14.50;;;;;;;16.81;83.22;99889.35;106785;1280;22551;-79
2023/09/13 01:01:39;;;;;;;25.10;13.80;;;;;;;16.77;83.23;99887.77;106717;1277;27709;-79
2023/09/13 01:04:09;;;;;;;28.00;13.40;;;;;;;16.75;83.32;99888.39;106825;1280;22578;-79
2023/09/13 01:06:41;;;;;;;24.20;13.60;;;;;;;16.73;83.25;99884.68;106757;1276;24208;-78
2023/09/13 01:09:13;;;;;;;24.20;13.30;;;;;;;16.69;83.38;99886.63;106626;1284;22534;-79
2023/09/13 01:11:45;;;;;;;25.50;13.20;;;;;;;16.64;83.70;99887.20;109778;1277;22314;-79
2023/09/13 01:14:16;;;;;;;24.70;13.50;;;;;;;16.60;83.84;99892.41;109762;1277;22165;-79
2023/09/13 01:16:52;;;;;;;24.50;13.70;;;;;;;16.58;83.96;99892.74;109773;1277;23066;-79
2023/09/13 01:19:39;;;;;;;25.80;13.40;;;;;;;16.58;83.88;99890.85;109806;1284;22342;-79
2023/09/13 01:22:34;;;;;;;24.00;13.80;;;;;;;16.57;83.80;99889.23;109758;1277;22925;-79
2023/09/13 01:25:23;;;;;;;26.70;13.90;;;;;;;16.55;83.96;99886.54;109740;1276;22338;-79
2023/09/13 01:28:03;;;;;;;24.90;14.30;;;;;;;16.51;84.18;99879.04;109783;1284;22248;-79
2023/09/13 01:30:35;;;;;;;26.20;13.10;;;;;;;16.50;84.18;99877.72;109781;1276;22309;-79
2023/09/13 01:33:06;;;;;;;30.30;14.10;;;;;;;16.50;84.28;99868.55;109801;1276;22333;-79
2023/09/13 01:35:36;;;;;;;23.40;13.10;;;;;;;16.49;84.32;99868.33;109766;1280;22165;-79
2023/09/13 01:38:07;;;;;;;23.90;13.50;;;;;;;16.46;84.54;99870.41;109768;1276;22203;-79
2023/09/13 01:40:43;;;;;;;26.10;13.60;;;;;;;16.43;84.59;99865.16;109767;1276;23360;-79
2023/09/13 01:43:14;;;;;;;24.00;12.70;;;;;;;16.42;84.60;99867.28;109748;1277;23074;-79
2023/09/13 01:45:46;;;;;;;24.90;13.30;;;;;;;16.42;84.60;99863.18;109790;1277;22407;-79
2023/09/13 01:48:19;;;;;;;26.60;14.20;;;;;;;16.42;84.67;99864.30;109743;1280;22758;-78
2023/09/13 01:50:52;;;;;;;28.30;14.80;;;;;;;16.45;84.97;99859.39;109754;1284;22282;-79
2023/09/13 01:53:23;;;;;;;29.20;14.10;;;;;;;16.46;85.33;99855.30;109796;1284;22352;-78
2023/09/13 01:55:53;;;;;;;28.30;15.20;;;;;;;16.47;85.53;99856.72;109743;1277;23239;-77
2023/09/13 01:58:24;;;;;;;29.20;15.30;;;;;;;16.48;85.90;99856.30;109761;1284;22344;-79
2023/09/13 02:00:55;;;;;;;26.80;14.80;;;;;;;16.47;86.13;99854.98;109765;1284;22158;-79
2023/09/13 02:03:26;;;;;;;26.90;15.10;;;;;;;16.45;86.04;99853.25;109843;1284;22366;-79
2023/09/13 02:05:56;;;;;;;28.70;15.70;;;;;;;16.44;86.11;99854.95;109802;1283;22161;-79
2023/09/13 02:08:27;;;;;;;29.00;16.80;;;;;;;16.41;86.13;99858.79;109811;1284;22168;-78
2023/09/13 02:10:58;;;;;;;28.80;15.50;;;;;;;16.37;86.30;99863.17;109803;1284;22176;-79
2023/09/13 02:13:29;;;;;;;28.20;15.50;;;;;;;16.35;86.22;99862.06;109826;1284;22116;-79
2023/09/13 02:15:59;;;;;;;28.10;15.50;;;;;;;16.33;86.56;99863.11;109807;1284;22174;-78
2023/09/13 02:18:30;;;;;;;29.30;15.60;;;;;;;16.30;86.47;99865.34;109824;1273;22216;-79
2023/09/13 02:21:01;;;;;;;29.00;16.00;;;;;;;16.28;86.34;99864.91;109799;1274;22234;-79
2023/09/13 02:23:32;;;;;;;27.60;15.30;;;;;;;16.25;86.45;99865.97;109820;1276;22195;-78
2023/09/13 02:26:03;;;;;;;29.70;15.20;;;;;;;16.21;86.35;99870.00;109791;1284;22204;-79
2023/09/13 02:28:34;;;;;;;30.10;16.00;;;;;;;16.18;86.34;99867.92;109791;1284;22511;-78
2023/09/13 02:31:04;;;;;;;27.60;14.60;;;;;;;16.15;86.39;99868.88;109806;1284;22230;-78
2023/09/13 02:33:35;;;;;;;27.40;14.80;;;;;;;16.11;86.28;99866.35;109818;1283;22311;-78
2023/09/13 02:36:06;;;;;;;26.50;14.80;;;;;;;16.08;86.33;99863.66;109773;1284;22176;-79
2023/09/13 02:38:37;;;;;;;27.90;15.60;;;;;;;16.03;86.40;99863.61;109821;1284;23134;-79
2023/09/13 02:41:08;;;;;;;30.90;15.50;;;;;;;16.01;86.43;99862.40;109784;1284;22162;-79
2023/09/13 02:43:40;;;;;;;31.30;15.80;;;;;;;15.98;86.46;99860.80;109791;1284;22888;-79
2023/09/13 02:46:10;;;;;;;27.00;15.30;;;;;;;15.96;86.54;99860.86;109848;1284;22182;-79
2023/09/13 02:48:41;;;;;;;27.50;15.70;;;;;;;15.91;86.59;99861.47;109832;1284;22784;-79
2023/09/13 02:51:15;;;;;;;31.10;15.30;;;;;;;15.88;86.64;99867.27;109810;1284;22228;-79
2023/09/13 02:53:46;;;;;;;29.40;14.90;;;;;;;15.86;86.53;99867.30;109844;1283;22306;-79
2023/09/13 02:56:16;;;;;;;25.90;15.20;;;;;;;15.85;86.73;99866.34;109774;1284;22239;-79
2023/09/13 02:58:47;;;;;;;29.20;16.60;;;;;;;15.84;86.95;99864.96;109794;1280;22176;-79
2023/09/13 03:01:18;;;;;;;28.30;16.80;;;;;;;15.84;87.12;99861.73;109814;1283;22847;-79
2023/09/13 03:03:49;;;;;;;29.30;16.70;;;;;;;15.83;87.34;99862.71;109802;1284;22181;-79
2023/09/13 03:06:19;;;;;;;30.60;17.90;;;;;;;15.82;87.64;99860.02;109796;1284;22278;-78
2023/09/13 03:08:50;;;;;;;29.90;16.30;;;;;;;15.80;87.70;99856.59;109838;1284;22162;-79
2023/09/13 03:11:21;;;;;;;26.20;16.10;;;;;;;15.78;87.63;99857.48;109820;1284;22874;-79
2023/09/13 03:13:52;;;;;;;31.50;16.80;;;;;;;15.77;87.56;99854.67;109824;1284;22127;-78
2023/09/13 03:16:23;;;;;;;30.30;17.80;;;;;;;15.77;87.85;99854.36;109791;1283;22947;-79
2023/09/13 03:18:55;;;;;;;28.50;16.00;;;;;;;15.77;87.97;99854.41;109825;1284;22218;-78
2023/09/13 03:21:27;;;;;;;27.10;14.40;;;;;;;15.76;88.10;99850.85;109804;1284;22433;-79
2023/09/13 03:23:57;;;;;;;28.60;15.80;;;;;;;15.75;88.06;99848.49;109803;1283;22244;-79
2023/09/13 03:26:29;;;;;;;30.60;16.20;;;;;;;15.75;88.27;99844.46;109795;1283;22238;-79
2023/09/13 03:28:59;;;;;;;26.30;15.50;;;;;;;15.74;88.19;99840.98;109809;1284;22237;-79
2023/09/13 03:31:31;;;;;;;27.70;16.30;;;;;;;15.75;88.43;99843.59;109830;1283;22325;-79
2023/09/13 03:34:01;;;;;;;31.40;17.00;;;;;;;15.74;88.57;99840.12;109940;1283;22234;-78
2023/09/13 03:36:32;;;;;;;32.50;18.60;;;;;;;15.73;88.80;99842.23;109935;1283;22232;-79
2023/09/13 03:39:03;;;;;;;30.10;16.70;;;;;;;15.73;88.89;99840.34;109860;1284;23080;-78
2023/09/13 03:41:34;;;;;;;31.50;17.50;;;;;;;15.71;89.00;99840.40;109783;1284;22264;-78
2023/09/13 03:44:06;;;;;;;30.60;16.10;;;;;;;15.68;88.94;99843.39;109763;1284;22164;-79
2023/09/13 03:46:37;;;;;;;30.50;16.70;;;;;;;15.67;89.02;99847.45;109741;1277;22183;-79
2023/09/13 03:49:08;;;;;;;30.00;16.60;;;;;;;15.66;88.90;99843.41;109762;1285;22210;-76
2023/09/13 03:51:39;;;;;;;29.80;17.30;;;;;;;15.63;88.90;99838.16;109785;1277;22408;-76
2023/09/13 03:54:10;;;;;;;29.40;17.50;;;;;;;15.61;88.85;99837.04;109765;1284;22197;-76
2023/09/13 03:56:40;;;;;;;31.80;16.80;;;;;;;15.60;88.93;99833.12;109743;1284;22136;-76
2023/09/13 03:59:11;;;;;;;31.20;18.20;;;;;;;15.58;89.15;99835.23;109759;1284;22195;-76
2023/09/13 04:01:42;;;;;;;29.00;16.30;;;;;;;15.57;88.95;99828.59;109782;1284;22191;-76
2023/09/13 04:04:12;;;;;;;29.30;16.80;;;;;;;15.53;88.91;99826.22;109807;1277;23010;-76
2023/09/13 04:06:44;;;;;;;32.10;16.80;;;;;;;15.50;88.91;99823.33;109743;1284;22533;-76
2023/09/13 04:09:17;;;;;;;28.70;16.10;;;;;;;15.46;89.10;99827.34;109722;1280;22210;-76
2023/09/13 04:11:50;;;;;;;29.40;15.90;;;;;;;15.43;89.05;99828.77;109757;1277;23090;-76
2023/09/13 04:14:21;;;;;;;25.80;14.80;;;;;;;15.41;89.17;99829.19;109722;1276;23124;-80
2023/09/13 04:16:54;;;;;;;27.30;15.90;;;;;;;15.40;89.05;99827.45;109720;1277;22382;-77
2023/09/13 04:19:25;;;;;;;31.70;15.90;;;;;;;15.38;89.12;99827.07;109766;1284;22420;-77
2023/09/13 04:21:56;;;;;;;28.40;15.90;;;;;;;15.36;89.24;99830.75;109789;1280;22916;-78
2023/09/13 04:24:26;;;;;;;27.60;15.70;;;;;;;15.34;89.18;99836.23;109711;1284;23431;-79
2023/09/13 04:26:57;;;;;;;31.40;18.30;;;;;;;15.32;89.10;99831.76;109754;1277;22245;-78
2023/09/13 04:29:28;;;;;;;28.80;14.50;;;;;;;15.30;89.27;99832.64;109746;1277;22128;-78
2023/09/13 04:32:02;;;;;;;26.60;14.80;;;;;;;15.28;89.32;99833.36;109640;1283;22324;-78
2023/09/13 04:34:36;;;;;;;23.50;13.70;;;;;;;15.25;89.30;99832.52;109714;1277;22995;-77
2023/09/13 04:37:07;;;;;;;30.00;14.00;;;;;;;15.22;89.30;99836.22;109704;1284;22205;-77
2023/09/13 04:39:38;;;;;;;24.20;13.20;;;;;;;15.19;89.41;99839.11;109721;1284;22325;-77
2023/09/13 04:42:09;;;;;;;22.80;12.30;;;;;;;15.16;89.38;99839.73;109762;1284;22260;-77
2023/09/13 04:44:39;;;;;;;25.30;13.60;;;;;;;15.15;89.65;99841.85;109722;1284;22246;-77
2023/09/13 04:47:10;;;;;;;25.10;12.50;;;;;;;15.14;89.55;99840.06;109709;1284;22876;-77
2023/09/13 04:49:41;;;;;;;24.50;13.10;;;;;;;15.14;89.56;99835.98;109748;1277;22182;-78
2023/09/13 04:52:13;;;;;;;23.40;13.60;;;;;;;15.14;89.68;99832.02;109757;1277;22918;-78
2023/09/13 04:54:43;;;;;;;23.60;13.90;;;;;;;15.15;89.83;99836.06;109728;1280;22253;-77
2023/09/13 04:57:14;;;;;;;27.50;14.60;;;;;;;15.15;89.95;99834.53;109779;1277;23216;-77
2023/09/13 04:59:47;;;;;;;29.80;15.40;;;;;;;15.15;90.24;99837.74;109755;1276;22455;-78
2023/09/13 05:02:18;;;;;;;30.50;15.80;;;;;;;15.16;90.33;99838.98;109765;1283;22218;-78
2023/09/13 05:04:49;;;;;;;29.80;15.50;;;;;;;15.18;90.60;99843.09;109732;1284;22147;-77
2023/09/13 05:07:20;;;;;;;33.70;17.20;;;;;;;15.20;90.89;99841.15;109738;1284;22512;-78
2023/09/13 05:09:51;;;;;;;31.50;16.20;;;;;;;15.24;91.23;99844.48;109765;1277;22272;-78
2023/09/13 05:12:22;;;;;;;30.50;17.80;;;;;;;15.29;91.23;99846.05;109774;1277;22200;-78
2023/09/13 05:14:53;;;;;;;28.90;16.20;;;;;;;15.32;91.55;99845.26;109778;1277;22292;-77
2023/09/13 05:17:23;;;;;;;30.20;16.60;;;;;;;15.37;91.41;99850.40;109741;1284;22162;-78
2023/09/13 05:19:54;;;;;;;30.60;17.70;;;;;;;15.41;91.36;99842.55;109722;1284;23358;-78
2023/09/13 05:22:24;;;;;;;32.70;18.10;;;;;;;15.48;91.44;99837.41;109791;1284;22216;-77
2023/09/13 05:24:55;;;;;;;34.00;18.60;;;;;;;15.54;91.93;99833.59;109763;1278;23033;-78
2023/09/13 05:27:26;;;;;;;35.80;20.50;;;;;;;15.60;92.19;99835.94;109764;1283;23486;-77
2023/09/13 05:29:57;;;;;;;39.10;20.90;;;;;;;15.66;92.79;99842.84;109758;1283;22263;-78
2023/09/13 05:32:28;;;;;;;38.20;20.50;;;;;;;15.72;93.23;99845.00;109773;1280;22359;-78
2023/09/13 05:34:58;;;;;;;38.40;21.40;;;;;;;15.78;93.29;99844.84;109726;1277;22308;-77
2023/09/13 05:37:29;;;;;;;35.00;20.90;;;;;;;15.83;93.23;99850.22;109724;1273;22312;-77
2023/09/13 05:40:03;;;;;;;41.40;21.30;;;;;;;15.89;93.18;99848.34;109767;1280;22394;-76
2023/09/13 05:42:35;;;;;;;54.10;25.60;;;;;;;15.96;93.50;99845.96;109782;1284;22929;-77
2023/09/13 05:45:07;;;;;;;43.90;22.00;;;;;;;16.03;93.84;99843.59;109770;1277;23474;-77
2023/09/13 05:47:38;;;;;;;38.20;20.70;;;;;;;16.11;94.25;99849.30;109796;1283;23220;-77
2023/09/13 05:50:10;;;;;;;37.80;21.60;;;;;;;16.18;93.97;99851.84;109778;1277;22394;-77
2023/09/13 05:52:41;;;;;;;42.60;22.20;;;;;;;16.27;94.48;99853.14;109792;1277;22207;-78
2023/09/13 05:55:12;;;;;;;40.80;22.70;;;;;;;16.35;95.11;99855.52;109771;1279;22206;-78
2023/09/13 05:57:43;;;;;;;37.40;22.70;;;;;;;16.43;95.28;99850.61;109776;1277;22248;-78
2023/09/13 06:00:17;;;;;;;45.70;26.70;;;;;;;16.51;95.40;99852.70;109758;1284;22235;-77
2023/09/13 06:02:48;;;;;;;42.70;24.20;;;;;;;16.60;95.88;99853.02;109792;1284;22189;-78
2023/09/13 06:05:19;;;;;;;40.00;22.50;;;;;;;16.68;95.89;99850.20;109789;1284;23084;-78
2023/09/13 06:07:50;;;;;;;38.60;22.30;;;;;;;16.75;95.68;99850.98;109775;1284;22607;-78
2023/09/13 06:10:21;;;;;;;43.30;24.30;;;;;;;16.83;96.05;99850.63;109797;1280;22172;-78
2023/09/13 06:12:52;;;;;;;35.50;21.70;;;;;;;16.92;96.33;99849.64;109793;1284;23069;-77
2023/09/13 06:15:22;;;;;;;37.80;23.00;;;;;;;16.99;96.61;99844.74;109779;1271;22981;-78
2023/09/13 06:17:54;;;;;;;36.30;22.70;;;;;;;17.08;96.81;99840.92;109749;1284;22282;-79
2023/09/13 06:20:25;;;;;;;39.90;23.10;;;;;;;17.16;97.23;99832.30;109754;1280;22178;-77
2023/09/13 06:22:57;;;;;;;36.10;22.50;;;;;;;17.27;97.61;99833.73;109767;1273;22262;-78
2023/09/13 06:25:27;;;;;;;36.50;22.90;;;;;;;17.36;97.38;99839.51;109782;1284;22373;-80
2023/09/13 06:27:58;;;;;;;36.90;23.40;;;;;;;17.44;97.52;99834.09;109796;1283;22921;-77
2023/09/13 06:30:30;;;;;;;40.30;22.80;;;;;;;17.52;97.48;99832.64;109770;1277;23082;-77
2023/09/13 06:33:03;;;;;;;40.70;20.10;;;;;;;17.62;97.86;99835.89;109804;1284;22155;-76
2023/09/13 06:35:33;;;;;;;31.90;19.70;;;;;;;17.72;98.23;99836.91;109797;1284;22860;-77
2023/09/13 06:38:04;;;;;;;37.30;21.00;;;;;;;17.84;98.69;99837.89;109767;1284;22170;-77
2023/09/13 06:40:37;;;;;;;32.40;20.30;;;;;;;17.97;98.69;99842.13;109738;1284;22353;-77
2023/09/13 06:43:09;;;;;;;34.70;20.40;;;;;;;18.07;98.37;99843.28;109735;1285;23019;-77
2023/09/13 06:45:40;;;;;;;29.50;18.50;;;;;;;18.19;98.53;99840.24;109762;1281;22449;-77
2023/09/13 06:48:11;;;;;;;29.60;17.70;;;;;;;18.33;98.49;99841.77;109790;1283;22309;-77
2023/09/13 06:50:41;;;;;;;30.20;16.60;;;;;;;18.45;98.14;99841.27;109808;1283;22768;-77
2023/09/13 06:53:12;;;;;;;29.50;16.70;;;;;;;18.56;98.13;99839.35;109786;1283;22318;-77
2023/09/13 06:55:43;;;;;;;30.80;16.20;;;;;;;18.70;98.08;99838.41;109819;1283;22127;-77
2023/09/13 06:58:14;;;;;;;25.40;16.80;;;;;;;18.88;98.16;99852.53;109806;1283;22395;-77
2023/09/13 07:00:44;;;;;;;35.20;18.60;;;;;;;19.07;97.77;99861.29;109814;1283;22189;-77
2023/09/13 07:03:15;;;;;;;31.30;16.30;;;;;;;19.23;97.08;99862.20;109804;1280;22200;-77
2023/09/13 07:05:46;;;;;;;32.00;16.10;;;;;;;19.35;96.56;99848.40;109779;1271;22216;-77
2023/09/13 07:08:16;;;;;;;31.30;15.40;;;;;;;19.45;96.65;99854.40;109810;1283;22851;-77
2023/09/13 07:10:47;;;;;;;25.70;13.40;;;;;;;19.59;96.27;99859.42;109815;1283;22366;-77
2023/09/13 07:13:17;;;;;;;26.90;14.60;;;;;;;19.72;95.72;99852.16;109799;1283;22374;-77
2023/09/13 07:15:49;;;;;;;28.40;14.60;;;;;;;19.81;95.34;99845.66;109783;1283;22679;-77
2023/09/13 07:18:20;;;;;;;26.40;13.90;;;;;;;19.91;95.20;99861.82;109826;1268;22295;-77
2023/09/13 07:20:51;;;;;;;25.10;14.00;;;;;;;20.07;94.95;99863.95;109774;1278;22500;-78
2023/09/13 07:23:22;;;;;;;28.90;15.20;;;;;;;20.20;94.63;99853.83;109832;1283;22232;-77
2023/09/13 07:25:52;;;;;;;24.50;12.30;;;;;;;20.31;94.43;99855.36;109790;1284;22148;-77
2023/09/13 07:28:23;;;;;;;25.70;11.90;;;;;;;20.49;93.86;99860.70;109788;1283;22816;-77
2023/09/13 07:30:54;;;;;;;22.70;11.30;;;;;;;20.59;93.11;99856.20;109801;1283;23212;-77
2023/09/13 07:33:24;;;;;;;26.20;12.90;;;;;;;20.67;92.80;99852.95;109787;1283;22229;-78
2023/09/13 07:35:55;;;;;;;24.10;12.20;;;;;;;20.80;92.60;99856.77;109787;1280;22912;-77
2023/09/13 07:38:26;;;;;;;23.10;11.40;;;;;;;20.93;92.30;99855.81;109785;1277;22260;-78
2023/09/13 07:40:57;;;;;;;24.20;11.80;;;;;;;21.02;91.99;99862.86;109775;1280;22237;-77
2023/09/13 07:43:28;;;;;;;38.80;11.50;;;;;;;21.15;91.75;99864.39;109741;1284;22378;-77
2023/09/13 07:45:59;;;;;;;22.70;11.10;;;;;;;21.32;91.17;99874.86;109739;1281;23153;-76
2023/09/13 07:48:29;;;;;;;31.20;10.90;;;;;;;21.49;90.86;99874.65;109813;1278;22327;-77
2023/09/13 07:51:00;;;;;;;25.00;11.50;;;;;;;21.65;90.60;99885.71;109796;1277;22163;-77
2023/09/13 07:53:31;;;;;;;21.60;12.10;;;;;;;21.78;89.85;99888.41;109793;1281;22365;-77
2023/09/13 07:56:03;;;;;;;20.80;10.20;;;;;;;21.90;89.28;99886.80;109800;1280;22149;-78
2023/09/13 07:58:34;;;;;;;31.00;11.80;;;;;;;22.00;89.01;99884.55;109778;1284;22220;-77
2023/09/13 08:01:05;;;;;;;29.90;11.40;;;;;;;22.09;88.72;99876.43;109802;1284;22185;-77
2023/09/13 08:03:36;;;;;;;22.10;10.40;;;;;;;22.19;88.29;99877.36;109789;1284;22972;-78
2023/09/13 08:06:07;;;;;;;20.70;10.70;;;;;;;22.28;88.05;99874.81;109807;1284;22812;-77
2023/09/13 08:08:38;;;;;;;28.70;10.30;;;;;;;22.38;87.37;99870.90;109797;1284;22837;-77
2023/09/13 08:11:08;;;;;;;18.90;8.80;;;;;;;22.48;86.62;99873.44;109811;1284;22588;-77
2023/09/13 08:13:39;;;;;;;20.80;9.70;;;;;;;22.58;86.11;99872.33;109810;1284;22987;-77
2023/09/13 08:16:10;;;;;;;20.00;8.30;;;;;;;22.69;86.15;99868.56;109797;1278;22193;-78
2023/09/13 08:18:41;;;;;;;21.20;9.50;;;;;;;22.82;85.48;99869.55;109772;1284;22925;-78
2023/09/13 08:21:12;;;;;;;19.00;9.40;;;;;;;22.91;84.96;99865.86;109782;1280;22212;-78
2023/09/13 08:23:42;;;;;;;21.80;9.30;;;;;;;22.97;84.58;99866.02;109796;1284;22272;-77
2023/09/13 08:26:13;;;;;;;17.00;8.60;;;;;;;23.06;84.16;99865.27;109807;1284;22157;-77
2023/09/13 08:28:47;;;;;;;22.20;8.60;;;;;;;23.15;82.87;99867.66;109785;1278;22630;-77
2023/09/13 08:31:17;;;;;;;18.40;8.10;;;;;;;23.27;82.51;99863.55;109813;1284;22291;-77
2023/09/13 08:33:48;;;;;;;17.80;8.30;;;;;;;23.36;81.63;99866.38;109788;1284;22197;-77
2023/09/13 08:36:19;;;;;;;17.20;8.50;;;;;;;23.47;80.62;99869.48;109798;1284;22296;-77
2023/09/13 08:38:50;;;;;;;16.70;6.90;;;;;;;23.57;80.33;99868.66;109793;1284;22972;-77
2023/09/13 08:41:21;;;;;;;17.50;7.10;;;;;;;23.66;78.82;99871.61;109802;1284;22219;-77
2023/09/13 08:43:54;;;;;;;18.90;8.40;;;;;;;23.70;77.74;99873.85;109804;1284;22281;-77
2023/09/13 08:46:25;;;;;;;20.60;8.70;;;;;;;23.75;77.55;99879.65;109791;1284;22940;-77
2023/09/13 08:48:58;;;;;;;16.90;7.60;;;;;;;23.81;77.10;99880.21;109779;1284;22149;-77
2023/09/13 08:51:30;;;;;;;19.10;7.50;;;;;;;23.85;76.66;99877.18;109814;1280;22333;-77
2023/09/13 08:54:02;;;;;;;20.20;7.90;;;;;;;23.93;76.41;99874.39;109775;1284;22303;-77
2023/09/13 08:56:34;;;;;;;19.40;8.90;;;;;;;24.02;75.43;99878.60;109802;1284;22399;-77
2023/09/13 08:59:05;;;;;;;19.20;9.00;;;;;;;24.06;75.03;99874.02;109795;1283;22169;-77
2023/09/13 09:01:36;;;;;;;17.00;8.10;;;;;;;24.10;75.14;99867.11;109803;1284;22141;-77
2023/09/13 09:04:08;;;;;;;28.20;9.20;;;;;;;24.15;74.34;99858.66;109820;1280;22165;-77
2023/09/13 09:06:39;;;;;;;19.50;7.90;;;;;;;24.20;74.41;99856.11;109846;1284;22194;-77
2023/09/13 09:09:10;;;;;;;20.10;8.60;;;;;;;24.26;73.41;99853.93;109915;1284;22771;-77
2023/09/13 09:11:44;;;;;;;21.70;9.30;;;;;;;24.31;73.20;99851.88;109807;1280;22740;-78
2023/09/13 09:14:17;;;;;;;19.80;8.80;;;;;;;24.36;73.04;99849.44;109784;1284;22243;-77
2023/09/13 09:16:51;;;;;;;19.50;9.00;;;;;;;24.42;72.94;99845.56;109795;1284;22759;-78
2023/09/13 09:19:22;;;;;;;22.50;8.90;;;;;;;24.46;72.14;99840.23;109811;1284;22191;-78
2023/09/13 09:21:53;;;;;;;19.60;9.00;;;;;;;24.52;71.54;99839.84;109801;1284;22366;-78
2023/09/13 09:24:23;;;;;;;19.50;8.00;;;;;;;24.57;71.42;99837.42;109771;1284;22171;-77
2023/09/13 09:26:56;;;;;;;21.00;7.60;;;;;;;24.61;71.65;99839.20;109807;1283;22883;-77
2023/09/13 09:29:37;;;;;;;17.60;7.90;;;;;;;24.68;71.69;99834.75;109776;1284;22162;-77
2023/09/13 09:32:08;;;;;;;19.60;7.00;;;;;;;24.75;70.63;99835.82;109794;1284;22160;-77
2023/09/13 09:34:41;;;;;;;17.40;7.80;;;;;;;24.79;70.39;99832.57;109788;1284;22170;-77
2023/09/13 09:37:12;;;;;;;19.60;8.00;;;;;;;24.86;70.60;99830.92;109808;1284;22182;-77
2023/09/13 09:39:43;;;;;;;16.40;7.60;;;;;;;24.95;70.61;99828.19;109776;1284;22177;-77
2023/09/13 09:42:17;;;;;;;21.10;7.90;;;;;;;24.98;70.23;99828.69;109789;1284;22953;-78
2023/09/13 09:44:49;;;;;;;17.10;7.20;;;;;;;24.99;69.48;99826.39;109799;1284;22172;-77
2023/09/13 09:47:20;;;;;;;18.80;7.70;;;;;;;25.03;69.52;99829.02;109812;1280;22190;-78
2023/09/13 09:49:52;;;;;;;19.40;8.20;;;;;;;25.07;68.94;99822.76;109764;1285;22702;-78
2023/09/13 09:52:23;;;;;;;18.50;7.30;;;;;;;25.11;68.72;99827.09;109807;1284;22151;-78
2023/09/13 09:54:55;;;;;;;16.70;6.90;;;;;;;25.14;68.48;99818.44;109769;1282;22140;-77
2023/09/13 09:57:26;;;;;;;21.40;8.30;;;;;;;25.17;68.64;99822.31;109802;1280;23332;-77
2023/09/13 09:59:59;;;;;;;17.90;7.30;;;;;;;25.24;68.76;99830.30;109850;1282;22192;-77
2023/09/13 10:02:32;;;;;;;19.20;7.10;;;;;;;25.37;68.59;99841.03;109807;1284;22313;-78
2023/09/13 10:05:03;;;;;;;17.10;7.10;;;;;;;25.53;68.22;99846.05;109767;1283;22900;-78
2023/09/13 10:07:41;;;;;;;15.60;7.60;;;;;;;25.64;67.51;99846.98;109526;1284;326785;-78
2023/09/13 10:10:30;;;;;;;17.00;7.50;;;;;;;25.73;66.87;99848.27;109792;1284;22290;-78
2023/09/13 10:13:01;;;;;;;18.90;6.80;;;;;;;25.80;66.23;99847.55;109774;1284;22224;-79
2023/09/13 10:15:32;;;;;;;17.60;7.80;;;;;;;25.87;65.78;99847.64;109776;1284;22311;-77
2023/09/13 10:18:04;;;;;;;15.50;7.30;;;;;;;25.92;65.49;99844.36;109795;1284;22202;-79
2023/09/13 10:20:37;;;;;;;18.50;7.40;;;;;;;25.98;65.08;99842.55;109780;1284;22261;-78
2023/09/13 10:23:12;;;;;;;20.20;7.70;;;;;;;26.05;64.80;99845.55;109805;1284;22278;-78
2023/09/13 10:25:45;;;;;;;15.80;7.30;;;;;;;26.11;64.33;99844.14;109783;1283;22138;-78
2023/09/13 10:28:18;;;;;;;19.00;8.50;;;;;;;26.14;64.50;99843.83;109793;1284;22945;-78
2023/09/13 10:30:51;;;;;;;15.30;7.00;;;;;;;26.21;64.05;99846.50;109792;1284;22261;-79
2023/09/13 10:33:23;;;;;;;18.80;7.60;;;;;;;26.26;64.20;99845.74;109818;1284;23546;-79
2023/09/13 10:35:59;;;;;;;15.60;7.60;;;;;;;26.33;63.99;99845.73;109814;1284;22998;-78
2023/09/13 10:38:38;;;;;;;17.80;8.20;;;;;;;26.38;63.73;99846.15;109790;1284;22337;-80
2023/09/13 10:41:13;;;;;;;17.10;6.70;;;;;;;26.45;63.69;99847.38;109807;1278;21752;-79
2023/09/13 10:43:44;;;;;;;17.10;7.30;;;;;;;26.52;63.06;99850.04;109799;1281;22383;-79
2023/09/13 10:46:16;;;;;;;18.50;7.40;;;;;;;26.56;62.57;99850.46;109784;1280;22189;-80
2023/09/13 10:48:47;;;;;;;18.10;6.90;;;;;;;26.54;62.34;99843.02;109799;1278;22203;-82
2023/09/13 10:51:19;;;;;;;20.70;7.10;;;;;;;26.57;62.22;99843.50;109774;1284;22332;-81
2023/09/13 10:53:50;;;;;;;16.90;7.80;;;;;;;26.60;62.05;99842.60;109792;1282;22147;-81
2023/09/13 10:56:22;;;;;;;16.20;7.60;;;;;;;26.61;61.76;99844.68;109762;1276;22186;-80
2023/09/13 10:58:54;;;;;;;16.20;6.60;;;;;;;26.62;61.62;99842.36;109806;1280;22977;-80
2023/09/13 11:01:26;;;;;;;20.70;8.20;;;;;;;26.66;61.82;99843.21;109801;1283;22319;-81
2023/09/13 11:03:57;;;;;;;22.80;7.70;;;;;;;26.73;61.83;99841.07;109843;1284;22315;-79
2023/09/13 11:06:28;;;;;;;17.10;7.60;;;;;;;26.80;61.25;99841.72;109812;1284;22151;-82
2023/09/13 11:09:13;;;;;;;17.30;8.20;;;;;;;26.83;61.42;99837.48;109833;1284;22888;-80
2023/09/13 11:11:48;;;;;;;19.00;7.30;;;;;;;26.88;61.39;99833.18;109823;1282;22668;-81
2023/09/13 11:14:25;;;;;;;15.30;7.90;;;;;;;26.92;61.19;99831.46;109765;1284;22167;-80
2023/09/13 11:16:58;;;;;;;13.80;6.60;;;;;;;26.95;60.57;99836.71;109802;1284;22411;-79
2023/09/13 11:19:32;;;;;;;13.10;6.10;;;;;;;26.97;60.19;99835.98;109779;1284;23245;-79
2023/09/13 11:22:04;;;;;;;16.60;7.00;;;;;;;27.00;59.84;99845.12;109828;1284;22258;-79
2023/09/13 11:24:40;;;;;;;16.40;5.90;;;;;;;27.04;59.40;99846.64;109804;1284;22139;-79
2023/09/13 11:27:14;;;;;;;17.50;7.80;;;;;;;27.07;59.48;99843.88;109811;1284;22166;-80
2023/09/13 11:29:48;;;;;;;15.20;6.60;;;;;;;27.10;59.06;99846.98;109812;1284;22162;-79
2023/09/13 11:32:20;;;;;;;15.40;6.60;;;;;;;27.12;58.86;99846.27;109804;1284;22266;-79